Terminal Aerodrome Forecast
Issued by NWS Kansas City/Pleasant Hill, MO

Home | Current Version | Previous Version | Text Only | Print | Product List | Glossary On
Versions: 1 2 3 4 5 6 7 8 9 10 11 12 13 14 15 16
782
FTUS43 KEAX 211128
TAFMCI
TAF
KMCI 211128Z 2112/2212 08012KT P6SM VCSH SCT080 OVC120
     FM211600 09015KT P6SM SCT080 OVC100
     FM220400 06010KT P6SM VCSH SCT030 OVC060=

USA.gov is the U.S. government's official web portal to all federal, state and local government web resources and services.